M/V Brothers Way — ERZX — position and weather

sailwx.info

Track history (hours):
 
Tides and Currents Weather Stations Pressure Air Temp Water Temp Dewpoint Dewpoint Depression Visibility Wind Speed Wind Dir Waves Ship Positions

M/V Brothers Way

Last reported at 2017-Nov-17 17:27 UTC. Time now 2017-Nov-18 03:04 UTC.
Position N 35°19' E 030°55'.

Length 105 m; draft 6.7 m.

Type: Cargo ship. MMSI: 214182624.

Date/timePositionNaut miles runAvg speedWind from/ knotsBaromVisibWave heightAir tempDewpointWater temp
2017-Nov-17 17:27N 35°19' E 030°55'3 6.7
2017-Nov-17 17:00N 35°20' E 030°51'3 6.7
2017-Nov-17 16:30N 35°22' E 030°48'3 6.7
2017-Nov-17 16:01N 35°23' E 030°44'4 6.8
2017-Nov-17 15:29N 35°25' E 030°40'8 7.1
2017-Nov-17 14:20N 35°29' E 030°31'3 7.0
2017-Nov-17 13:57N 35°30' E 030°28'3 7.1
2017-Nov-17 13:30N 35°31' E 030°25'6 7.0
2017-Nov-17 12:41N 35°34' E 030°19'  
2017-Nov-15 03:58N 39°50' E 025°48'157 6.9
2017-Nov-14 05:07N 40°57' E 028°55'1 6.9
2017-Nov-14 04:59N 40°57' E 028°56'154 5.3
2017-Nov-12 23:57N 43°31' E 028°47'3 6.4
2017-Nov-12 23:30N 43°34' E 028°47'3 6.5
2017-Nov-12 23:00N 43°37' E 028°46'3 6.5
2017-Nov-12 22:30N 43°40' E 028°46'3 6.6
2017-Nov-12 22:00N 43°43' E 028°45'3 6.8
2017-Nov-12 21:30N 43°47' E 028°45'3 6.7
2017-Nov-12 21:00N 43°50' E 028°44'3 6.7
2017-Nov-12 20:30N 43°53' E 028°44'3 6.8
2017-Nov-12 20:00N 43°57' E 028°43'3 7.0
2017-Nov-12 19:30N 44°00' E 028°43'3 7.0
2017-Nov-12 19:00N 44°04' E 028°42'3 6.6
2017-Nov-12 18:30N 44°07' E 028°41'3 6.0
2017-Nov-12 18:00N 44°10' E 028°39'0 0.2
2017-Nov-12 17:28N 44°10' E 028°39'0 0.0
2017-Nov-12 16:58N 44°10' E 028°39'0 0.0
2017-Nov-12 16:28N 44°10' E 028°39'0 0.0
2017-Nov-12 15:58N 44°10' E 028°39'0 0.0
2017-Nov-12 15:25N 44°10' E 028°39'0 0.0
2017-Nov-12 14:58N 44°10' E 028°39'0 0.0
2017-Nov-12 14:28N 44°10' E 028°39'0 0.0
2017-Nov-12 13:58N 44°10' E 028°39'0 0.0
2017-Nov-12 13:28N 44°10' E 028°39'0 0.0
2017-Nov-12 12:58N 44°10' E 028°39'0 0.0
2017-Nov-12 12:28N 44°10' E 028°39'0 0.0
2017-Nov-12 11:58N 44°10' E 028°39'0 0.0
2017-Nov-12 11:28N 44°10' E 028°39'0 0.0
2017-Nov-12 10:58N 44°10' E 028°39'0 0.0
2017-Nov-12 10:28N 44°10' E 028°39'0 0.0
2017-Nov-12 09:58N 44°10' E 028°39'0 0.0
2017-Nov-12 09:28N 44°10' E 028°39'0 0.0
2017-Nov-12 08:58N 44°10' E 028°39'0 0.0
2017-Nov-12 08:28N 44°10' E 028°39'0 0.0
2017-Nov-12 07:58N 44°10' E 028°39'0 0.0
2017-Nov-12 07:28N 44°10' E 028°39'0 0.0
2017-Nov-12 06:58N 44°10' E 028°39'0 0.0
2017-Nov-12 06:28N 44°10' E 028°39'0 0.0
2017-Nov-12 05:58N 44°10' E 028°39'0 0.0
2017-Nov-12 05:28N 44°10' E 028°39'0 0.0
2017-Nov-12 04:55N 44°10' E 028°39'0 0.0
2017-Nov-12 04:28N 44°10' E 028°39'0 0.0
2017-Nov-12 03:58N 44°10' E 028°39'0 0.0
2017-Nov-12 03:31N 44°10' E 028°39'0 0.0
2017-Nov-12 03:01N 44°10' E 028°39'0 0.0
2017-Nov-12 02:30N 44°10' E 028°39'0 0.0
2017-Nov-12 02:00N 44°10' E 028°39'0 0.0
2017-Nov-12 01:30N 44°10' E 028°39'0 0.0
2017-Nov-12 01:00N 44°10' E 028°39'0 0.0
2017-Nov-12 00:30N 44°10' E 028°39'0 0.0
2017-Nov-12 00:00N 44°10' E 028°39'0 0.0
2017-Nov-11 23:30N 44°10' E 028°39'0 0.0
2017-Nov-11 23:00N 44°10' E 028°39'0 0.0
2017-Nov-11 22:30N 44°10' E 028°39'0 0.0
2017-Nov-11 22:00N 44°10' E 028°39'0 0.0
2017-Nov-11 21:30N 44°10' E 028°39'0 0.0
2017-Nov-11 21:00N 44°10' E 028°39'0 0.0
2017-Nov-11 20:30N 44°10' E 028°39'0 0.0
2017-Nov-11 20:00N 44°10' E 028°39'0 0.0
2017-Nov-11 19:30N 44°10' E 028°39'0 0.0
2017-Nov-11 19:00N 44°10' E 028°39'0 0.0
2017-Nov-11 18:30N 44°10' E 028°39'0 0.0
2017-Nov-11 18:00N 44°10' E 028°39'0 0.0
2017-Nov-11 17:30N 44°10' E 028°39'0 0.0
2017-Nov-11 17:00N 44°10' E 028°39'0 0.0
2017-Nov-11 16:24N 44°10' E 028°39'0 0.0
2017-Nov-11 15:54N 44°10' E 028°39'0 0.0
2017-Nov-11 15:30N 44°10' E 028°39'0 0.0
2017-Nov-11 15:00N 44°10' E 028°39'0 0.0
2017-Nov-11 14:30N 44°10' E 028°39'0 0.0
2017-Nov-11 14:00N 44°10' E 028°39'0 0.0
2017-Nov-11 13:30N 44°10' E 028°39'0 0.0
2017-Nov-11 13:00N 44°10' E 028°39'0 0.0
2017-Nov-11 12:30N 44°10' E 028°39'0 0.0
2017-Nov-11 12:00N 44°10' E 028°39'0 0.0
2017-Nov-11 11:30N 44°10' E 028°39'0 0.0
2017-Nov-11 10:57N 44°10' E 028°39'0 0.0
2017-Nov-11 10:30N 44°10' E 028°39'0 0.0
2017-Nov-11 10:00N 44°10' E 028°39'0 0.0
2017-Nov-11 09:27N 44°10' E 028°39'0 0.0
2017-Nov-11 09:00N 44°10' E 028°39'0 0.0
2017-Nov-11 08:30N 44°10' E 028°39'0 0.0
2017-Nov-11 08:00N 44°10' E 028°39'0 0.0
2017-Nov-11 07:27N 44°10' E 028°39'0 0.0
2017-Nov-11 07:00N 44°10' E 028°39'0 0.0
2017-Nov-11 06:30N 44°10' E 028°39'0 0.0
2017-Nov-11 06:00N 44°10' E 028°39'0 0.0
2017-Nov-11 05:30N 44°10' E 028°39'0 0.0
2017-Nov-11 05:00N 44°10' E 028°39'0 0.0
2017-Nov-11 04:30N 44°10' E 028°39'0 0.0
2017-Nov-11 04:00N 44°10' E 028°39'0 0.0
2017-Nov-11 03:30N 44°10' E 028°39'0 0.0
2017-Nov-11 03:00N 44°10' E 028°39'0 0.0
2017-Nov-11 02:30N 44°10' E 028°39'0 0.0
2017-Nov-11 02:00N 44°10' E 028°39'0 0.0
2017-Nov-11 01:30N 44°10' E 028°39'0 0.0
2017-Nov-11 01:00N 44°10' E 028°39'0 0.0
2017-Nov-11 00:30N 44°10' E 028°39'0 0.0
2017-Nov-11 00:00N 44°10' E 028°39'0 0.0
2017-Nov-10 23:30N 44°10' E 028°39'0 0.0
2017-Nov-10 23:00N 44°10' E 028°39'0 0.0
2017-Nov-10 22:30N 44°10' E 028°39'0 0.0
2017-Nov-10 22:00N 44°10' E 028°39'0 0.0
2017-Nov-10 21:30N 44°10' E 028°39'0 0.0
2017-Nov-10 20:57N 44°10' E 028°39'0 0.0
2017-Nov-10 20:27N 44°10' E 028°39'0 0.0
2017-Nov-10 20:00N 44°10' E 028°39'0 0.0
2017-Nov-10 19:27N 44°10' E 028°39'0 0.0
2017-Nov-10 19:00N 44°10' E 028°39'0 0.0
2017-Nov-10 18:30N 44°10' E 028°39'0 0.0
2017-Nov-10 18:00N 44°10' E 028°39'0 0.0
2017-Nov-10 17:30N 44°10' E 028°39'0 0.0
2017-Nov-10 17:00N 44°10' E 028°39'0 0.0
2017-Nov-10 16:30N 44°10' E 028°39'1 1.1
2017-Nov-10 16:00N 44°10' E 028°39'0 0.2
2017-Nov-10 15:30N 44°10' E 028°39'0 0.0
2017-Nov-10 15:00N 44°10' E 028°39'0 0.0
2017-Nov-10 14:30N 44°10' E 028°39'0 0.0
2017-Nov-10 14:00N 44°10' E 028°39'0 0.0
2017-Nov-10 13:21N 44°10' E 028°39'0 0.0
2017-Nov-10 13:00N 44°10' E 028°39'0 0.0
2017-Nov-10 12:30N 44°10' E 028°39'0 0.0
2017-Nov-10 11:59N 44°10' E 028°39'0 0.0
2017-Nov-10 11:29N 44°10' E 028°39'0 0.0
2017-Nov-10 10:59N 44°10' E 028°39'0 0.0
2017-Nov-10 10:23N 44°10' E 028°39'0 0.0
2017-Nov-10 09:59N 44°10' E 028°39'0 0.0
2017-Nov-10 09:29N 44°10' E 028°39'0 0.0
2017-Nov-10 08:59N 44°10' E 028°39'0 0.0
2017-Nov-10 08:29N 44°10' E 028°39'0 0.0
2017-Nov-10 07:59N 44°10' E 028°39'0 0.0
2017-Nov-10 07:29N 44°10' E 028°39'0 0.0
2017-Nov-10 06:59N 44°10' E 028°39'0 0.0
2017-Nov-10 06:29N 44°10' E 028°39'0 0.0
2017-Nov-10 05:59N 44°10' E 028°39'0 0.0
2017-Nov-10 05:29N 44°10' E 028°39'0 0.0
2017-Nov-10 04:59N 44°10' E 028°39'0 0.0
2017-Nov-10 04:29N 44°10' E 028°39'0 0.0
2017-Nov-10 03:59N 44°10' E 028°39'0 0.0
2017-Nov-10 03:29N 44°10' E 028°39'0 0.0
2017-Nov-10 02:59N 44°10' E 028°39'0 0.0
2017-Nov-10 02:29N 44°10' E 028°39'0 0.0
2017-Nov-10 01:59N 44°10' E 028°39'0 0.0
2017-Nov-10 01:29N 44°10' E 028°39'0 0.0
2017-Nov-10 00:59N 44°10' E 028°39'0 0.0
2017-Nov-10 00:29N 44°10' E 028°39'0 0.0
2017-Nov-09 23:59N 44°10' E 028°39'0 0.0
2017-Nov-09 23:29N 44°10' E 028°39'0 0.0
2017-Nov-09 22:59N 44°10' E 028°39'0 0.0
2017-Nov-09 22:29N 44°10' E 028°39'0 0.0
2017-Nov-09 21:59N 44°10' E 028°39'0 0.0
2017-Nov-09 21:29N 44°10' E 028°39'0 0.0
2017-Nov-09 20:59N 44°10' E 028°39'0 0.0
2017-Nov-09 20:29N 44°10' E 028°39'0 0.0
2017-Nov-09 19:59N 44°10' E 028°39'0 0.0
2017-Nov-09 19:29N 44°10' E 028°39'0 0.0
2017-Nov-09 18:59N 44°10' E 028°39'0 0.0
2017-Nov-09 18:29N 44°10' E 028°39'0 0.0
2017-Nov-09 17:59N 44°10' E 028°39'0 0.0
2017-Nov-09 17:26N 44°10' E 028°39'0 0.0
2017-Nov-09 16:59N 44°10' E 028°39'0 0.0
2017-Nov-09 16:29N 44°10' E 028°39'0 0.0
2017-Nov-09 15:59N 44°10' E 028°39'0 0.0
2017-Nov-09 15:29N 44°10' E 028°39'0 0.0
2017-Nov-09 14:56N 44°10' E 028°39'0 0.0
2017-Nov-09 14:29N 44°10' E 028°39'0 0.0
2017-Nov-09 13:59N 44°10' E 028°39'0 0.0
2017-Nov-09 13:29N 44°10' E 028°39'0 0.0
2017-Nov-09 12:59N 44°10' E 028°39'0 0.0
2017-Nov-09 12:29N 44°10' E 028°39'0 0.0
2017-Nov-09 11:59N 44°10' E 028°39'0 0.0
2017-Nov-09 11:26N 44°10' E 028°39'0 0.0
2017-Nov-09 10:59N 44°10' E 028°39'0 0.0
2017-Nov-09 10:29N 44°10' E 028°39'0 0.0
2017-Nov-09 09:53N 44°10' E 028°39'0 0.0
2017-Nov-09 09:29N 44°10' E 028°39'0 0.0
2017-Nov-09 08:59N 44°10' E 028°39'0 0.0
2017-Nov-09 08:29N 44°10' E 028°39'0 0.0
2017-Nov-09 07:59N 44°10' E 028°39'0 0.0
2017-Nov-09 07:29N 44°10' E 028°39'0 0.0
2017-Nov-09 06:59N 44°10' E 028°39'0 0.1
2017-Nov-09 06:30N 44°10' E 028°39'1 2.3
2017-Nov-09 06:00N 44°09' E 028°40'4 7.4
2017-Nov-09 05:30N 44°06' E 028°43'4 7.1
2017-Nov-09 05:00N 44°03' E 028°46'4 7.2
2017-Nov-09 04:30N 44°00' E 028°49'3 6.2
2017-Nov-09 04:00N 43°57' E 028°49'4 7.0
2017-Nov-09 03:30N 43°54' E 028°47'4 7.2
2017-Nov-09 03:00N 43°50' E 028°46'3 7.0
2017-Nov-09 02:30N 43°47' E 028°45'4 7.1
2017-Nov-09 02:00N 43°43' E 028°44'4 7.1
2017-Nov-09 01:28N 43°40' E 028°43'3 6.7
2017-Nov-09 01:00N 43°37' E 028°42'  
Track history (hours):
 
Tides and Currents Weather Stations Pressure Air Temp Water Temp Dewpoint Dewpoint Depression Visibility Wind Speed Wind Dir Waves Ship Positions

M/V Brothers Way

Last reported at 2017-Nov-17 17:27 UTC. Time now 2017-Nov-18 03:04 UTC.
Position N 35°19' E 030°55'.

Length 105 m; draft 6.7 m.

Type: Cargo ship. MMSI: 214182624.

Date/timePositionNaut miles runAvg speedWind from/ knotsBaromVisibWave heightAir tempDewpointWater temp
2017-Nov-17 17:27N 35°19' E 030°55'3 6.7
2017-Nov-17 17:00N 35°20' E 030°51'3 6.7
2017-Nov-17 16:30N 35°22' E 030°48'3 6.7
2017-Nov-17 16:01N 35°23' E 030°44'4 6.8
2017-Nov-17 15:29N 35°25' E 030°40'8 7.1
2017-Nov-17 14:20N 35°29' E 030°31'3 7.0
2017-Nov-17 13:57N 35°30' E 030°28'3 7.1
2017-Nov-17 13:30N 35°31' E 030°25'6 7.0
2017-Nov-17 12:41N 35°34' E 030°19'  
2017-Nov-15 03:58N 39°50' E 025°48'157 6.9
2017-Nov-14 05:07N 40°57' E 028°55'1 6.9
2017-Nov-14 04:59N 40°57' E 028°56'154 5.3
2017-Nov-12 23:57N 43°31' E 028°47'3 6.4
2017-Nov-12 23:30N 43°34' E 028°47'3 6.5
2017-Nov-12 23:00N 43°37' E 028°46'3 6.5
2017-Nov-12 22:30N 43°40' E 028°46'3 6.6
2017-Nov-12 22:00N 43°43' E 028°45'3 6.8
2017-Nov-12 21:30N 43°47' E 028°45'3 6.7
2017-Nov-12 21:00N 43°50' E 028°44'3 6.7
2017-Nov-12 20:30N 43°53' E 028°44'3 6.8
2017-Nov-12 20:00N 43°57' E 028°43'3 7.0
2017-Nov-12 19:30N 44°00' E 028°43'3 7.0
2017-Nov-12 19:00N 44°04' E 028°42'3 6.6
2017-Nov-12 18:30N 44°07' E 028°41'3 6.0
2017-Nov-12 18:00N 44°10' E 028°39'0 0.2
2017-Nov-12 17:28N 44°10' E 028°39'0 0.0
2017-Nov-12 16:58N 44°10' E 028°39'0 0.0
2017-Nov-12 16:28N 44°10' E 028°39'0 0.0
2017-Nov-12 15:58N 44°10' E 028°39'0 0.0
2017-Nov-12 15:25N 44°10' E 028°39'0 0.0
2017-Nov-12 14:58N 44°10' E 028°39'0 0.0
2017-Nov-12 14:28N 44°10' E 028°39'0 0.0
2017-Nov-12 13:58N 44°10' E 028°39'0 0.0
2017-Nov-12 13:28N 44°10' E 028°39'0 0.0
2017-Nov-12 12:58N 44°10' E 028°39'0 0.0
2017-Nov-12 12:28N 44°10' E 028°39'0 0.0
2017-Nov-12 11:58N 44°10' E 028°39'0 0.0
2017-Nov-12 11:28N 44°10' E 028°39'0 0.0
2017-Nov-12 10:58N 44°10' E 028°39'0 0.0
2017-Nov-12 10:28N 44°10' E 028°39'0 0.0
2017-Nov-12 09:58N 44°10' E 028°39'0 0.0
2017-Nov-12 09:28N 44°10' E 028°39'0 0.0
2017-Nov-12 08:58N 44°10' E 028°39'0 0.0
2017-Nov-12 08:28N 44°10' E 028°39'0 0.0
2017-Nov-12 07:58N 44°10' E 028°39'0 0.0
2017-Nov-12 07:28N 44°10' E 028°39'0 0.0
2017-Nov-12 06:58N 44°10' E 028°39'0 0.0
2017-Nov-12 06:28N 44°10' E 028°39'0 0.0
2017-Nov-12 05:58N 44°10' E 028°39'0 0.0
2017-Nov-12 05:28N 44°10' E 028°39'0 0.0
2017-Nov-12 04:55N 44°10' E 028°39'0 0.0
2017-Nov-12 04:28N 44°10' E 028°39'0 0.0
2017-Nov-12 03:58N 44°10' E 028°39'0 0.0
2017-Nov-12 03:31N 44°10' E 028°39'0 0.0
2017-Nov-12 03:01N 44°10' E 028°39'0 0.0
2017-Nov-12 02:30N 44°10' E 028°39'0 0.0
2017-Nov-12 02:00N 44°10' E 028°39'0 0.0
2017-Nov-12 01:30N 44°10' E 028°39'0 0.0
2017-Nov-12 01:00N 44°10' E 028°39'0 0.0
2017-Nov-12 00:30N 44°10' E 028°39'0 0.0
2017-Nov-12 00:00N 44°10' E 028°39'0 0.0
2017-Nov-11 23:30N 44°10' E 028°39'0 0.0
2017-Nov-11 23:00N 44°10' E 028°39'0 0.0
2017-Nov-11 22:30N 44°10' E 028°39'0 0.0
2017-Nov-11 22:00N 44°10' E 028°39'0 0.0
2017-Nov-11 21:30N 44°10' E 028°39'0 0.0
2017-Nov-11 21:00N 44°10' E 028°39'0 0.0
2017-Nov-11 20:30N 44°10' E 028°39'0 0.0
2017-Nov-11 20:00N 44°10' E 028°39'0 0.0
2017-Nov-11 19:30N 44°10' E 028°39'0 0.0
2017-Nov-11 19:00N 44°10' E 028°39'0 0.0
2017-Nov-11 18:30N 44°10' E 028°39'0 0.0
2017-Nov-11 18:00N 44°10' E 028°39'0 0.0
2017-Nov-11 17:30N 44°10' E 028°39'0 0.0
2017-Nov-11 17:00N 44°10' E 028°39'0 0.0
2017-Nov-11 16:24N 44°10' E 028°39'0 0.0
2017-Nov-11 15:54N 44°10' E 028°39'0 0.0
2017-Nov-11 15:30N 44°10' E 028°39'0 0.0
2017-Nov-11 15:00N 44°10' E 028°39'0 0.0
2017-Nov-11 14:30N 44°10' E 028°39'0 0.0
2017-Nov-11 14:00N 44°10' E 028°39'0 0.0
2017-Nov-11 13:30N 44°10' E 028°39'0 0.0
2017-Nov-11 13:00N 44°10' E 028°39'0 0.0
2017-Nov-11 12:30N 44°10' E 028°39'0 0.0
2017-Nov-11 12:00N 44°10' E 028°39'0 0.0
2017-Nov-11 11:30N 44°10' E 028°39'0 0.0
2017-Nov-11 10:57N 44°10' E 028°39'0 0.0
2017-Nov-11 10:30N 44°10' E 028°39'0 0.0
2017-Nov-11 10:00N 44°10' E 028°39'0 0.0
2017-Nov-11 09:27N 44°10' E 028°39'0 0.0
2017-Nov-11 09:00N 44°10' E 028°39'0 0.0
2017-Nov-11 08:30N 44°10' E 028°39'0 0.0
2017-Nov-11 08:00N 44°10' E 028°39'0 0.0
2017-Nov-11 07:27N 44°10' E 028°39'0 0.0
2017-Nov-11 07:00N 44°10' E 028°39'0 0.0
2017-Nov-11 06:30N 44°10' E 028°39'0 0.0
2017-Nov-11 06:00N 44°10' E 028°39'0 0.0
2017-Nov-11 05:30N 44°10' E 028°39'0 0.0
2017-Nov-11 05:00N 44°10' E 028°39'0 0.0
2017-Nov-11 04:30N 44°10' E 028°39'0 0.0
2017-Nov-11 04:00N 44°10' E 028°39'0 0.0
2017-Nov-11 03:30N 44°10' E 028°39'0 0.0
2017-Nov-11 03:00N 44°10' E 028°39'0 0.0
2017-Nov-11 02:30N 44°10' E 028°39'0 0.0
2017-Nov-11 02:00N 44°10' E 028°39'0 0.0
2017-Nov-11 01:30N 44°10' E 028°39'0 0.0
2017-Nov-11 01:00N 44°10' E 028°39'0 0.0
2017-Nov-11 00:30N 44°10' E 028°39'0 0.0
2017-Nov-11 00:00N 44°10' E 028°39'0 0.0
2017-Nov-10 23:30N 44°10' E 028°39'0 0.0
2017-Nov-10 23:00N 44°10' E 028°39'0 0.0
2017-Nov-10 22:30N 44°10' E 028°39'0 0.0
2017-Nov-10 22:00N 44°10' E 028°39'0 0.0
2017-Nov-10 21:30N 44°10' E 028°39'0 0.0
2017-Nov-10 20:57N 44°10' E 028°39'0 0.0
2017-Nov-10 20:27N 44°10' E 028°39'0 0.0
2017-Nov-10 20:00N 44°10' E 028°39'0 0.0
2017-Nov-10 19:27N 44°10' E 028°39'0 0.0
2017-Nov-10 19:00N 44°10' E 028°39'0 0.0
2017-Nov-10 18:30N 44°10' E 028°39'0 0.0
2017-Nov-10 18:00N 44°10' E 028°39'0 0.0
2017-Nov-10 17:30N 44°10' E 028°39'0 0.0
2017-Nov-10 17:00N 44°10' E 028°39'0 0.0
2017-Nov-10 16:30N 44°10' E 028°39'1 1.1
2017-Nov-10 16:00N 44°10' E 028°39'0 0.2
2017-Nov-10 15:30N 44°10' E 028°39'0 0.0
2017-Nov-10 15:00N 44°10' E 028°39'0 0.0
2017-Nov-10 14:30N 44°10' E 028°39'0 0.0
2017-Nov-10 14:00N 44°10' E 028°39'0 0.0
2017-Nov-10 13:21N 44°10' E 028°39'0 0.0
2017-Nov-10 13:00N 44°10' E 028°39'0 0.0
2017-Nov-10 12:30N 44°10' E 028°39'0 0.0
2017-Nov-10 11:59N 44°10' E 028°39'0 0.0
2017-Nov-10 11:29N 44°10' E 028°39'0 0.0
2017-Nov-10 10:59N 44°10' E 028°39'0 0.0
2017-Nov-10 10:23N 44°10' E 028°39'0 0.0
2017-Nov-10 09:59N 44°10' E 028°39'0 0.0
2017-Nov-10 09:29N 44°10' E 028°39'0 0.0
2017-Nov-10 08:59N 44°10' E 028°39'0 0.0
2017-Nov-10 08:29N 44°10' E 028°39'0 0.0
2017-Nov-10 07:59N 44°10' E 028°39'0 0.0
2017-Nov-10 07:29N 44°10' E 028°39'0 0.0
2017-Nov-10 06:59N 44°10' E 028°39'0 0.0
2017-Nov-10 06:29N 44°10' E 028°39'0 0.0
2017-Nov-10 05:59N 44°10' E 028°39'0 0.0
2017-Nov-10 05:29N 44°10' E 028°39'0 0.0
2017-Nov-10 04:59N 44°10' E 028°39'0 0.0
2017-Nov-10 04:29N 44°10' E 028°39'0 0.0
2017-Nov-10 03:59N 44°10' E 028°39'0 0.0
2017-Nov-10 03:29N 44°10' E 028°39'0 0.0
2017-Nov-10 02:59N 44°10' E 028°39'0 0.0
2017-Nov-10 02:29N 44°10' E 028°39'0 0.0
2017-Nov-10 01:59N 44°10' E 028°39'0 0.0
2017-Nov-10 01:29N 44°10' E 028°39'0 0.0
2017-Nov-10 00:59N 44°10' E 028°39'0 0.0
2017-Nov-10 00:29N 44°10' E 028°39'0 0.0
2017-Nov-09 23:59N 44°10' E 028°39'0 0.0
2017-Nov-09 23:29N 44°10' E 028°39'0 0.0
2017-Nov-09 22:59N 44°10' E 028°39'0 0.0
2017-Nov-09 22:29N 44°10' E 028°39'0 0.0
2017-Nov-09 21:59N 44°10' E 028°39'0 0.0
2017-Nov-09 21:29N 44°10' E 028°39'0 0.0
2017-Nov-09 20:59N 44°10' E 028°39'0 0.0
2017-Nov-09 20:29N 44°10' E 028°39'0 0.0
2017-Nov-09 19:59N 44°10' E 028°39'0 0.0
2017-Nov-09 19:29N 44°10' E 028°39'0 0.0
2017-Nov-09 18:59N 44°10' E 028°39'0 0.0
2017-Nov-09 18:29N 44°10' E 028°39'0 0.0
2017-Nov-09 17:59N 44°10' E 028°39'0 0.0
2017-Nov-09 17:26N 44°10' E 028°39'0 0.0
2017-Nov-09 16:59N 44°10' E 028°39'0 0.0
2017-Nov-09 16:29N 44°10' E 028°39'0 0.0
2017-Nov-09 15:59N 44°10' E 028°39'0 0.0
2017-Nov-09 15:29N 44°10' E 028°39'0 0.0
2017-Nov-09 14:56N 44°10' E 028°39'0 0.0
2017-Nov-09 14:29N 44°10' E 028°39'0 0.0
2017-Nov-09 13:59N 44°10' E 028°39'0 0.0
2017-Nov-09 13:29N 44°10' E 028°39'0 0.0
2017-Nov-09 12:59N 44°10' E 028°39'0 0.0
2017-Nov-09 12:29N 44°10' E 028°39'0 0.0
2017-Nov-09 11:59N 44°10' E 028°39'0 0.0
2017-Nov-09 11:26N 44°10' E 028°39'0 0.0
2017-Nov-09 10:59N 44°10' E 028°39'0 0.0
2017-Nov-09 10:29N 44°10' E 028°39'0 0.0
2017-Nov-09 09:53N 44°10' E 028°39'0 0.0
2017-Nov-09 09:29N 44°10' E 028°39'0 0.0
2017-Nov-09 08:59N 44°10' E 028°39'0 0.0
2017-Nov-09 08:29N 44°10' E 028°39'0 0.0
2017-Nov-09 07:59N 44°10' E 028°39'0 0.0
2017-Nov-09 07:29N 44°10' E 028°39'0 0.0
2017-Nov-09 06:59N 44°10' E 028°39'0 0.1
2017-Nov-09 06:30N 44°10' E 028°39'1 2.3
2017-Nov-09 06:00N 44°09' E 028°40'4 7.4
2017-Nov-09 05:30N 44°06' E 028°43'4 7.1
2017-Nov-09 05:00N 44°03' E 028°46'4 7.2
2017-Nov-09 04:30N 44°00' E 028°49'3 6.2
2017-Nov-09 04:00N 43°57' E 028°49'4 7.0
2017-Nov-09 03:30N 43°54' E 028°47'4 7.2
2017-Nov-09 03:00N 43°50' E 028°46'3 7.0
2017-Nov-09 02:30N 43°47' E 028°45'4 7.1
2017-Nov-09 02:00N 43°43' E 028°44'4 7.1
2017-Nov-09 01:28N 43°40' E 028°43'3 6.7
2017-Nov-09 01:00N 43°37' E 028°42'  

Dump ship's entire track history